createdAt,value
2022-08-31T00:00:04.909Z,102230.88
2022-08-31T00:02:49.741Z,102224.78
2022-08-31T00:05:17.590Z,102229.16
2022-08-31T00:07:45.144Z,102223.91
2022-08-31T00:10:18.866Z,102230.03
2022-08-31T00:12:49.766Z,102230.03
2022-08-31T00:15:19.838Z,102232.66
2022-08-31T00:17:50.502Z,102222.19
2022-08-31T00:20:32.640Z,102226.53
2022-08-31T00:23:02.153Z,102226.56
2022-08-31T00:25:29.759Z,102217.84
2022-08-31T00:27:57.287Z,102211.69
2022-08-31T00:30:24.969Z,102223.97
2022-08-31T00:32:52.516Z,102227.44
2022-08-31T00:35:20.570Z,102218.72
2022-08-31T00:37:48.098Z,102217.84
2022-08-31T00:40:15.820Z,102218.75
2022-08-31T00:42:43.345Z,102217.91
2022-08-31T00:45:11.433Z,102222.25
2022-08-31T00:47:39.135Z,102211.78
2022-08-31T00:50:10.438Z,102220.56
2022-08-31T00:52:43.029Z,102216.19
2022-08-31T00:55:17.454Z,102215.34
2022-08-31T00:57:49.135Z,102218.88
2022-08-31T01:00:25.291Z,102212.72
2022-08-31T01:02:53.181Z,102220.59
2022-08-31T01:05:20.883Z,102220.59
2022-08-31T01:07:49.166Z,102218.88
2022-08-31T01:10:19.887Z,102224.97
2022-08-31T01:12:51.740Z,102218.88
2022-08-31T01:15:20.310Z,102214.59
2022-08-31T01:17:50.231Z,102217.22
2022-08-31T01:20:27.563Z,102224.19
2022-08-31T01:23:20.046Z,102222.41
2022-08-31T01:25:49.756Z,102218.94
2022-08-31T01:28:17.331Z,102222.47
2022-08-31T01:30:45.620Z,102222.47
2022-08-31T01:33:13.377Z,102220.72
2022-08-31T01:35:45.912Z,102224.25
2022-08-31T01:38:13.654Z,102233.00
2022-08-31T01:40:52.883Z,102226.03
2022-08-31T01:43:20.430Z,102226.03
2022-08-31T01:45:48.023Z,102228.63
2022-08-31T01:48:15.650Z,102238.25
2022-08-31T01:50:43.303Z,102227.75
2022-08-31T01:53:11.425Z,102220.81
2022-08-31T01:55:39.488Z,102220.78
2022-08-31T01:58:07.933Z,102228.69
2022-08-31T02:00:35.807Z,102223.41
2022-08-31T02:03:05.769Z,102230.38
2022-08-31T02:05:33.306Z,102229.53
2022-08-31T02:08:00.959Z,102222.56
2022-08-31T02:10:28.569Z,102234.78
2022-08-31T02:12:56.223Z,102206.84
2022-08-31T02:15:23.744Z,102221.69
2022-08-31T02:17:52.660Z,102225.16
2022-08-31T02:20:20.779Z,102231.28
2022-08-31T02:22:48.649Z,102227.81
2022-08-31T02:25:16.824Z,102229.56
2022-08-31T02:27:44.401Z,102218.22
2022-08-31T02:30:16.515Z,102233.06
2022-08-31T02:32:44.291Z,102233.91
2022-08-31T02:35:12.935Z,102227.81
2022-08-31T02:37:40.469Z,102224.34
2022-08-31T02:40:11.932Z,102227.81
2022-08-31T02:42:52.263Z,102222.59
2022-08-31T02:45:21.722Z,102224.34
2022-08-31T02:47:49.320Z,102226.06
2022-08-31T02:50:17.154Z,102217.34
2022-08-31T02:52:47.659Z,102228.72
2022-08-31T02:55:15.539Z,102231.31
2022-08-31T02:57:43.021Z,102222.63
2022-08-31T03:00:11.802Z,102221.75
2022-08-31T03:02:41.056Z,102225.25
2022-08-31T03:05:10.159Z,102227.84
2022-08-31T03:07:39.369Z,102225.22
2022-08-31T03:10:09.866Z,102234.84
2022-08-31T03:12:38.085Z,102236.56
2022-08-31T03:15:08.033Z,102237.44
2022-08-31T03:17:35.753Z,102236.56
2022-08-31T03:20:06.194Z,102230.44
2022-08-31T03:22:35.452Z,102233.09
2022-08-31T03:25:04.201Z,102233.97
2022-08-31T03:27:31.736Z,102237.44
2022-08-31T03:29:59.746Z,102236.56
2022-08-31T03:32:28.360Z,102228.72
2022-08-31T03:34:58.816Z,102233.06
2022-08-31T03:37:26.784Z,102235.69
2022-08-31T03:39:54.573Z,102230.44
2022-08-31T03:42:22.188Z,102233.06
2022-08-31T03:44:50.235Z,102231.34
2022-08-31T03:47:17.866Z,102232.19
2022-08-31T03:49:45.570Z,102191.19
2022-08-31T03:52:13.161Z,102234.84
2022-08-31T03:54:40.721Z,102199.03
2022-08-31T03:57:08.699Z,102236.56
2022-08-31T03:59:36.610Z,102240.06
2022-08-31T04:02:04.354Z,102238.31
2022-08-31T04:04:31.860Z,102236.56
2022-08-31T04:06:59.338Z,102222.59
2022-08-31T04:09:26.866Z,102241.81
2022-08-31T04:11:54.493Z,102242.69
2022-08-31T04:14:22.046Z,102226.97
2022-08-31T04:16:49.662Z,102238.31
2022-08-31T04:19:17.556Z,102237.44
2022-08-31T04:21:45.853Z,102238.31
2022-08-31T04:24:14.214Z,102244.44
2022-08-31T04:26:41.756Z,102241.81
2022-08-31T04:29:13.466Z,102254.03
2022-08-31T04:31:41.630Z,102253.16
2022-08-31T04:34:09.106Z,102240.06
2022-08-31T04:36:38.038Z,102247.91
2022-08-31T04:39:07.502Z,102246.16
2022-08-31T04:41:39.666Z,102240.94
2022-08-31T04:44:07.546Z,102250.53
2022-08-31T04:46:37.604Z,102257.50
2022-08-31T04:49:07.858Z,102257.50
2022-08-31T04:51:36.027Z,102262.72
2022-08-31T04:54:06.905Z,102254.00
2022-08-31T04:56:36.588Z,102257.53
2022-08-31T04:59:07.964Z,102257.50
2022-08-31T05:01:43.462Z,102270.56
2022-08-31T05:04:13.831Z,102253.97
2022-08-31T05:06:43.593Z,102264.44
2022-08-31T05:09:14.877Z,102267.88
2022-08-31T05:11:42.807Z,102275.72
2022-08-31T05:14:11.125Z,102274.84
2022-08-31T05:16:40.755Z,102287.91
2022-08-31T05:19:08.833Z,102280.03
2022-08-31T05:21:39.034Z,102285.28
2022-08-31T05:24:13.596Z,102285.25
2022-08-31T05:26:45.438Z,102292.19
2022-08-31T05:29:15.214Z,102285.22
2022-08-31T05:31:46.231Z,102282.63
2022-08-31T05:34:17.782Z,102286.97
2022-08-31T05:36:47.443Z,102280.00
2022-08-31T05:39:14.934Z,102282.59
2022-08-31T05:41:45.032Z,102283.44
2022-08-31T05:44:13.406Z,102279.97
2022-08-31T05:46:41.551Z,102286.09
2022-08-31T05:49:10.878Z,102285.19
2022-08-31T05:51:39.922Z,102278.22
2022-08-31T05:54:10.710Z,102279.13
2022-08-31T05:56:41.099Z,102287.81
2022-08-31T05:59:10.402Z,102279.09
2022-08-31T06:01:40.900Z,102278.22
2022-08-31T06:04:10.409Z,102283.50
2022-08-31T06:06:38.939Z,102294.84
2022-08-31T06:09:08.833Z,102286.16
2022-08-31T06:11:38.275Z,102285.31
2022-08-31T06:14:06.677Z,102286.19
2022-08-31T06:16:35.819Z,102285.38
2022-08-31T06:19:07.096Z,102278.38
2022-08-31T06:21:38.023Z,102284.53
2022-08-31T06:24:07.548Z,102295.00
2022-08-31T06:26:37.020Z,102284.53
2022-08-31T06:29:07.397Z,102291.53
2022-08-31T06:31:38.086Z,102289.78
2022-08-31T06:34:08.278Z,102295.88
2022-08-31T06:36:36.461Z,102290.69
2022-08-31T06:39:04.707Z,102297.66
2022-08-31T06:41:36.786Z,102300.28
2022-08-31T06:44:07.449Z,102286.31
2022-08-31T06:46:36.849Z,102298.56
2022-08-31T06:49:05.125Z,102302.91
2022-08-31T06:51:38.056Z,102302.91
2022-08-31T06:54:27.896Z,102300.28
2022-08-31T06:56:59.340Z,102289.78
2022-08-31T06:59:29.904Z,102303.75
2022-08-31T07:01:59.674Z,102303.72
2022-08-31T07:04:28.094Z,102299.38
2022-08-31T07:06:56.006Z,102309.78
2022-08-31T07:09:23.815Z,102317.59
2022-08-31T07:11:53.642Z,102324.56
2022-08-31T07:14:24.904Z,102316.72
2022-08-31T07:16:55.069Z,102314.91
2022-08-31T07:19:23.143Z,102308.84
2022-08-31T07:21:57.325Z,102306.06
2022-08-31T07:24:27.792Z,102305.19
2022-08-31T07:27:15.073Z,102307.88
2022-08-31T07:29:43.220Z,102317.38
2022-08-31T07:32:13.643Z,102311.25
2022-08-31T07:34:41.372Z,102279.81
2022-08-31T07:37:26.532Z,102316.25
2022-08-31T07:40:12.930Z,102317.00
2022-08-31T07:42:44.404Z,102313.53
2022-08-31T07:45:22.522Z,102309.16
2022-08-31T07:47:52.381Z,102318.63
2022-08-31T07:50:21.567Z,102319.34
2022-08-31T07:52:54.504Z,102312.31
2022-08-31T07:55:35.037Z,102317.47
2022-08-31T07:58:03.414Z,102306.06
2022-08-31T08:00:33.135Z,102311.97
2022-08-31T08:03:07.704Z,102324.78
2022-08-31T08:05:38.654Z,102332.69
2022-08-31T08:08:11.891Z,102324.78
2022-08-31T08:10:52.171Z,102328.97
2022-08-31T08:13:21.199Z,102327.09
2022-08-31T08:15:50.829Z,102329.31
2022-08-31T08:18:20.088Z,102329.16
2022-08-31T08:20:48.064Z,102332.31
2022-08-31T08:23:27.961Z,102345.56
2022-08-31T08:25:57.774Z,102335.44
2022-08-31T08:28:43.108Z,102325.50
2022-08-31T08:31:17.414Z,102327.47
2022-08-31T08:33:46.452Z,102331.53
2022-08-31T08:36:18.168Z,102325.38
2022-08-31T08:38:48.011Z,102320.72
2022-08-31T08:41:19.990Z,102328.66
2022-08-31T08:43:52.656Z,102326.38
2022-08-31T08:46:35.237Z,102329.72
2022-08-31T08:49:15.676Z,102327.47
2022-08-31T08:51:44.262Z,102329.38
2022-08-31T08:54:22.434Z,102324.09
2022-08-31T08:56:49.951Z,102325.03
2022-08-31T08:59:19.948Z,102321.66
2022-08-31T09:01:50.463Z,102327.69
2022-08-31T09:05:16.497Z,102321.63
2022-08-31T09:08:05.093Z,102324.97
2022-08-31T09:10:39.067Z,102321.88
2022-08-31T09:13:55.881Z,102326.00
2022-08-31T09:16:59.917Z,102319.75
2022-08-31T09:19:27.901Z,102311.91
2022-08-31T09:22:01.862Z,102312.56
2022-08-31T09:24:30.834Z,102310.72
2022-08-31T09:27:17.934Z,102321.72
2022-08-31T09:29:59.602Z,102322.03
2022-08-31T09:32:36.125Z,102309.72
2022-08-31T09:35:09.095Z,102312.34
2022-08-31T09:37:46.204Z,102319.56
2022-08-31T09:40:19.663Z,102315.91
2022-08-31T09:43:26.212Z,102308.00
2022-08-31T09:46:08.247Z,102307.91
2022-08-31T09:48:56.311Z,102309.53
2022-08-31T09:51:30.183Z,102313.09
2022-08-31T09:54:35.273Z,102311.50
2022-08-31T09:57:06.364Z,102311.38
2022-08-31T09:59:41.938Z,102313.44
2022-08-31T10:02:22.648Z,102306.41
2022-08-31T10:04:56.149Z,102307.56
2022-08-31T10:07:43.248Z,102312.22
2022-08-31T10:10:30.491Z,102294.91
2022-08-31T10:13:03.685Z,102312.16
2022-08-31T10:15:41.234Z,102314.69
2022-08-31T10:18:16.084Z,102304.34
2022-08-31T10:21:04.710Z,102302.47
2022-08-31T10:23:54.071Z,102269.38
2022-08-31T10:26:31.565Z,102303.66
2022-08-31T10:29:06.235Z,102290.59
2022-08-31T10:31:36.817Z,102297.22
2022-08-31T10:34:30.774Z,102286.38
2022-08-31T10:37:08.125Z,102294.69
2022-08-31T10:39:44.858Z,102292.66
2022-08-31T10:42:32.369Z,102284.69
2022-08-31T10:45:09.251Z,102281.41
2022-08-31T10:47:41.545Z,102275.97
2022-08-31T10:50:11.540Z,102288.75
2022-08-31T10:52:53.368Z,102292.22
2022-08-31T10:55:37.230Z,102274.81
2022-08-31T10:58:32.794Z,102281.97
2022-08-31T11:01:18.871Z,102293.88
2022-08-31T11:04:05.016Z,102292.84
2022-08-31T11:06:35.501Z,102290.66
2022-08-31T11:09:20.314Z,102283.47
2022-08-31T11:11:58.267Z,102294.94
2022-08-31T11:14:48.404Z,102287.19
2022-08-31T11:17:22.422Z,102262.16
2022-08-31T11:20:02.394Z,102277.16
2022-08-31T11:22:42.071Z,102282.91
2022-08-31T11:25:25.262Z,102263.53
2022-08-31T11:28:08.175Z,102271.97
2022-08-31T11:30:42.229Z,102254.44
2022-08-31T11:33:14.539Z,102263.34
2022-08-31T11:36:04.089Z,102262.84
2022-08-31T11:38:48.739Z,102258.47
2022-08-31T11:41:46.687Z,102254.81
2022-08-31T11:44:29.733Z,102260.13
2022-08-31T11:47:06.777Z,102268.00
2022-08-31T11:49:36.795Z,102252.97
2022-08-31T11:52:10.367Z,102250.47
2022-08-31T11:54:42.662Z,102254.41
2022-08-31T11:57:15.564Z,102239.63
2022-08-31T11:59:46.364Z,102240.16
2022-08-31T12:02:20.127Z,102239.66
2022-08-31T12:04:48.008Z,102231.59
2022-08-31T12:07:38.078Z,102200.78
2022-08-31T12:10:08.597Z,102234.06
2022-08-31T12:13:18.794Z,102226.38
2022-08-31T12:16:25.118Z,102223.56
2022-08-31T12:19:39.473Z,102218.09
2022-08-31T12:22:56.694Z,102221.16
2022-08-31T12:25:35.419Z,102221.69
2022-08-31T12:28:07.637Z,102214.19
2022-08-31T12:30:35.268Z,102212.16
2022-08-31T12:33:05.532Z,102215.31
2022-08-31T12:35:34.053Z,102214.19
2022-08-31T12:38:11.459Z,102210.44
2022-08-31T12:40:49.061Z,102210.25
2022-08-31T12:43:22.106Z,102205.25
2022-08-31T12:46:17.627Z,102203.38
2022-08-31T12:49:07.677Z,102190.81
2022-08-31T12:51:52.910Z,102197.69
2022-08-31T12:54:39.168Z,102198.78
2022-08-31T12:57:45.698Z,102193.09
2022-08-31T13:00:27.416Z,102192.88
2022-08-31T13:02:58.641Z,102176.53
2022-08-31T13:05:32.819Z,102183.91
2022-08-31T13:08:00.957Z,102182.78
2022-08-31T13:10:38.493Z,102179.94
2022-08-31T13:13:21.019Z,102174.56
2022-08-31T13:15:48.688Z,102181.88
2022-08-31T13:18:23.290Z,102179.38
2022-08-31T13:20:56.548Z,102183.00
2022-08-31T13:23:30.377Z,102180.84
2022-08-31T13:26:03.327Z,102176.94
2022-08-31T13:28:35.026Z,102160.56
2022-08-31T13:31:09.221Z,102178.13
2022-08-31T13:33:41.114Z,102161.63
2022-08-31T13:36:16.146Z,102151.88
2022-08-31T13:38:51.709Z,102157.31
2022-08-31T13:41:30.069Z,102157.72
2022-08-31T13:44:02.756Z,102163.06
2022-08-31T13:46:43.198Z,102157.53
2022-08-31T13:49:35.643Z,102148.41
2022-08-31T13:52:08.742Z,102151.66
2022-08-31T13:54:37.626Z,102152.13
2022-08-31T13:57:35.854Z,102146.66
2022-08-31T14:00:24.950Z,102153.72
2022-08-31T14:02:53.925Z,102152.44
2022-08-31T14:05:34.513Z,102151.28
2022-08-31T14:08:07.204Z,102153.13
2022-08-31T14:10:43.024Z,102155.81
2022-08-31T14:13:27.777Z,102168.31
2022-08-31T14:16:02.065Z,102161.16
2022-08-31T14:18:40.253Z,102145.53
2022-08-31T14:21:20.555Z,102146.81
2022-08-31T14:23:52.652Z,102143.16
2022-08-31T14:26:22.865Z,102147.28
2022-08-31T14:28:53.673Z,102134.28
2022-08-31T14:31:24.521Z,102138.69
2022-08-31T14:34:10.672Z,102133.22
2022-08-31T14:36:51.122Z,102141.09
2022-08-31T14:39:18.619Z,102144.03
2022-08-31T14:41:46.219Z,102136.22
2022-08-31T14:44:14.425Z,102126.81
2022-08-31T14:46:43.371Z,102131.25
2022-08-31T14:49:11.339Z,102141.38
2022-08-31T14:51:39.338Z,102140.91
2022-08-31T14:54:11.379Z,102134.91
2022-08-31T14:56:46.783Z,102129.66
2022-08-31T14:59:16.375Z,102123.22
2022-08-31T15:01:45.540Z,102130.53
2022-08-31T15:04:15.423Z,102124.34
2022-08-31T15:06:43.979Z,102119.41
2022-08-31T15:09:11.647Z,102123.25
2022-08-31T15:11:41.046Z,102109.78
2022-08-31T15:14:12.278Z,102116.69
2022-08-31T15:16:42.553Z,102117.84
2022-08-31T15:19:13.491Z,102113.59
2022-08-31T15:21:44.530Z,102092.25
2022-08-31T15:24:12.771Z,102105.31
2022-08-31T15:26:42.836Z,102116.81
2022-08-31T15:29:13.737Z,102109.19
2022-08-31T15:31:49.127Z,102125.16
2022-08-31T15:34:24.656Z,102114.75
2022-08-31T15:36:56.135Z,102126.19
2022-08-31T15:39:32.365Z,102119.47
2022-08-31T15:42:00.917Z,102116.06
2022-08-31T15:44:28.469Z,102116.00
2022-08-31T15:47:13.565Z,102114.81
2022-08-31T15:49:43.566Z,102118.66
2022-08-31T15:52:11.091Z,102111.13
2022-08-31T15:54:41.003Z,102118.84
2022-08-31T15:57:11.328Z,102101.38
2022-08-31T15:59:43.685Z,102105.91
2022-08-31T16:02:14.242Z,102110.78
2022-08-31T16:04:43.381Z,102117.31
2022-08-31T16:07:13.706Z,102109.50
2022-08-31T16:09:44.462Z,102112.03
2022-08-31T16:12:16.954Z,102104.47
2022-08-31T16:14:45.249Z,102115.28
2022-08-31T16:17:19.843Z,102107.13
2022-08-31T16:19:49.282Z,102091.69
2022-08-31T16:22:18.123Z,102104.78
2022-08-31T16:24:46.861Z,102086.00
2022-08-31T16:27:16.992Z,102063.38
2022-08-31T16:29:45.632Z,102101.84
2022-08-31T16:32:13.690Z,102096.59
2022-08-31T16:34:42.611Z,102102.88
2022-08-31T16:37:10.627Z,102099.41
2022-08-31T16:39:44.090Z,102101.59
2022-08-31T16:42:13.234Z,102093.28
2022-08-31T16:44:43.694Z,102100.50
2022-08-31T16:47:11.853Z,102095.78
2022-08-31T16:49:41.253Z,102109.84
2022-08-31T16:52:18.070Z,102108.34
2022-08-31T16:54:50.925Z,102111.03
2022-08-31T16:57:21.621Z,102107.56
2022-08-31T16:59:50.307Z,102111.97
2022-08-31T17:02:20.006Z,102103.38
2022-08-31T17:04:52.551Z,102109.03
2022-08-31T17:07:22.073Z,102088.13
2022-08-31T17:09:50.014Z,102110.75
2022-08-31T17:12:21.682Z,102107.50
2022-08-31T17:14:52.521Z,102107.81
2022-08-31T17:17:23.618Z,102106.09
2022-08-31T17:19:53.106Z,102115.84
2022-08-31T17:22:29.987Z,102109.88
2022-08-31T17:25:02.916Z,102109.19
2022-08-31T17:27:34.927Z,102115.47
2022-08-31T17:30:05.780Z,102112.94
2022-08-31T17:32:36.441Z,102120.25
2022-08-31T17:35:07.875Z,102113.31
2022-08-31T17:37:36.446Z,102122.16
2022-08-31T17:40:08.016Z,102131.97
2022-08-31T17:42:36.263Z,102124.53
2022-08-31T17:45:06.353Z,102111.41
2022-08-31T17:47:35.858Z,102122.13
2022-08-31T17:50:03.469Z,102124.09
2022-08-31T17:52:30.975Z,102134.69
2022-08-31T17:55:01.803Z,102134.06
2022-08-31T17:57:29.574Z,102128.16
2022-08-31T17:59:57.234Z,102137.00
2022-08-31T18:02:32.522Z,102130.97
2022-08-31T18:05:01.134Z,102131.97
2022-08-31T18:07:29.571Z,102137.53
2022-08-31T18:09:57.485Z,102141.19
2022-08-31T18:12:25.751Z,102137.81
2022-08-31T18:14:57.934Z,102144.19
2022-08-31T18:17:26.543Z,102144.66
2022-08-31T18:19:54.646Z,102140.34
2022-08-31T18:22:22.312Z,102138.78
2022-08-31T18:24:49.846Z,102151.25
2022-08-31T18:27:17.526Z,102159.31
2022-08-31T18:29:46.211Z,102146.22
2022-08-31T18:32:14.895Z,102158.75
2022-08-31T18:34:46.301Z,102153.81
2022-08-31T18:37:16.205Z,102157.34
2022-08-31T18:40:04.213Z,102168.00
2022-08-31T18:42:51.597Z,102163.00
2022-08-31T18:45:19.956Z,102162.34
2022-08-31T18:50:50.976Z,102175.78
2022-08-31T18:53:29.515Z,102173.28
2022-08-31T18:56:08.858Z,102162.09
2022-08-31T18:58:37.163Z,102172.84
2022-08-31T19:01:10.246Z,102172.97
2022-08-31T19:03:39.349Z,102171.38
2022-08-31T19:06:08.165Z,102180.19
2022-08-31T19:08:36.170Z,102182.88
2022-08-31T19:11:08.100Z,102187.47
2022-08-31T19:13:36.193Z,102191.13
2022-08-31T19:16:15.065Z,102186.00
2022-08-31T19:18:44.778Z,102195.69
2022-08-31T19:21:24.257Z,102186.19
2022-08-31T19:23:52.572Z,102202.06
2022-08-31T19:26:23.041Z,102198.72
2022-08-31T19:28:51.396Z,102189.16
2022-08-31T19:31:20.955Z,102199.81
2022-08-31T19:33:49.089Z,102200.00
2022-08-31T19:36:16.831Z,102202.72
2022-08-31T19:38:47.195Z,102196.81
2022-08-31T19:41:26.324Z,102189.94
2022-08-31T19:44:07.365Z,102203.16
2022-08-31T19:46:35.863Z,102205.84
2022-08-31T19:49:03.448Z,102199.00
2022-08-31T19:51:32.021Z,102206.84
2022-08-31T19:54:00.862Z,102212.28
2022-08-31T19:56:31.018Z,102212.41
2022-08-31T19:58:59.957Z,102223.00
2022-08-31T20:01:33.799Z,102219.56
2022-08-31T20:04:04.136Z,102227.53
2022-08-31T20:06:32.501Z,102226.78
2022-08-31T20:09:00.593Z,102230.34
2022-08-31T20:11:31.011Z,102225.19
2022-08-31T20:14:00.213Z,102223.59
2022-08-31T20:16:33.822Z,102230.72
2022-08-31T20:19:04.742Z,102226.34
2022-08-31T20:21:35.038Z,102233.47
2022-08-31T20:24:06.993Z,102234.47
2022-08-31T20:26:43.583Z,102230.94
2022-08-31T20:29:13.806Z,102234.59
2022-08-31T20:31:45.502Z,102229.44
2022-08-31T20:34:18.580Z,102225.00
2022-08-31T20:36:49.994Z,102226.84
2022-08-31T20:39:19.892Z,102236.47
2022-08-31T20:41:49.934Z,102233.09
2022-08-31T20:44:24.003Z,102224.41
2022-08-31T20:47:15.326Z,102226.19
2022-08-31T20:49:45.979Z,102236.69
2022-08-31T20:52:16.146Z,102237.66
2022-08-31T20:54:44.522Z,102235.03
2022-08-31T20:57:14.446Z,102243.81
2022-08-31T20:59:42.492Z,102228.03
2022-08-31T21:02:10.619Z,102240.25
2022-08-31T21:04:44.639Z,102233.25
2022-08-31T21:07:14.564Z,102226.28
2022-08-31T21:09:44.645Z,102238.56
2022-08-31T21:12:18.034Z,102235.03
2022-08-31T21:14:48.685Z,102237.69
2022-08-31T21:17:16.929Z,102235.09
2022-08-31T21:19:45.341Z,102234.22
2022-08-31T21:22:16.947Z,102237.78
2022-08-31T21:24:44.574Z,102235.16
2022-08-31T21:27:14.988Z,102237.00
2022-08-31T21:29:46.805Z,102240.56
2022-08-31T21:32:15.522Z,102241.47
2022-08-31T21:34:43.030Z,102240.63
2022-08-31T21:37:10.657Z,102243.34
2022-08-31T21:39:38.638Z,102242.44
2022-08-31T21:42:06.899Z,102239.00
2022-08-31T21:44:35.803Z,102235.56
2022-08-31T21:47:03.395Z,102242.56
2022-08-31T21:49:30.997Z,102241.69
2022-08-31T21:51:59.941Z,102232.97
2022-08-31T21:54:29.686Z,102233.00
2022-08-31T21:57:00.197Z,102233.84
2022-08-31T21:59:32.519Z,102239.13
2022-08-31T22:02:06.694Z,102240.91
2022-08-31T22:04:38.621Z,102239.16
2022-08-31T22:07:07.691Z,102240.06
2022-08-31T22:09:36.916Z,102238.38
2022-08-31T22:12:06.721Z,102241.81
2022-08-31T22:14:37.991Z,102239.28
2022-08-31T22:17:07.752Z,102235.75
2022-08-31T22:19:38.887Z,102236.69
2022-08-31T22:22:11.838Z,102233.22
2022-08-31T22:24:41.256Z,102244.63
2022-08-31T22:27:11.114Z,102241.13
2022-08-31T22:29:40.369Z,102244.63
2022-08-31T22:32:15.082Z,102243.75
2022-08-31T22:34:43.664Z,102244.75
2022-08-31T22:37:13.806Z,102248.25
2022-08-31T22:39:42.677Z,102250.84
2022-08-31T22:42:13.139Z,102250.00
2022-08-31T22:44:41.005Z,102249.97
2022-08-31T22:47:09.365Z,102254.41
2022-08-31T22:49:36.868Z,102256.13
2022-08-31T22:52:05.075Z,102250.03
2022-08-31T22:54:34.420Z,102234.38
2022-08-31T22:57:02.156Z,102245.78
2022-08-31T22:59:30.512Z,102231.78
2022-08-31T23:02:02.012Z,102237.03
2022-08-31T23:04:31.658Z,102242.28
2022-08-31T23:07:01.203Z,102239.66
2022-08-31T23:09:31.129Z,102231.84
2022-08-31T23:12:01.269Z,102231.00
2022-08-31T23:14:32.048Z,102236.25
2022-08-31T23:17:01.362Z,102232.81
2022-08-31T23:19:36.966Z,102231.03
2022-08-31T23:22:09.204Z,102231.09
2022-08-31T23:24:38.888Z,102234.59
2022-08-31T23:27:10.245Z,102229.34
2022-08-31T23:29:41.301Z,102216.25
2022-08-31T23:32:11.164Z,102218.88
2022-08-31T23:34:39.743Z,102224.13
2022-08-31T23:37:08.686Z,102209.34
2022-08-31T23:39:39.304Z,102214.59
2022-08-31T23:42:12.101Z,102204.16
2022-08-31T23:44:41.794Z,102193.69
2022-08-31T23:47:10.973Z,102203.28
2022-08-31T23:49:39.185Z,102191.06
2022-08-31T23:52:07.185Z,102193.69
2022-08-31T23:54:37.291Z,102206.78
2022-08-31T23:57:06.071Z,102194.56
2022-08-31T23:59:36.366Z,102205.06
